createdAt,value
2023-03-07T00:01:54.651Z,73.55
2023-03-07T00:04:56.700Z,73.85
2023-03-07T00:07:59.458Z,73.22
2023-03-07T00:11:03.369Z,60.03
2023-03-07T00:14:08.830Z,66.18
2023-03-07T00:17:10.925Z,64.43
2023-03-07T00:20:15.979Z,65.20
2023-03-07T00:23:17.936Z,56.50
2023-03-07T00:26:22.946Z,54.17
2023-03-07T00:29:25.047Z,57.42
2023-03-07T00:32:27.581Z,54.22
2023-03-07T00:35:29.661Z,60.30
2023-03-07T00:38:32.924Z,62.85
2023-03-07T00:41:35.075Z,62.17
2023-03-07T00:44:37.240Z,64.80
2023-03-07T00:47:39.322Z,63.13
2023-03-07T00:50:41.671Z,57.97
2023-03-07T00:53:44.657Z,62.35
2023-03-07T00:56:46.869Z,62.92
2023-03-07T00:59:49.305Z,64.07
2023-03-07T01:02:52.051Z,56.30
2023-03-07T01:05:55.265Z,63.15
2023-03-07T01:09:00.831Z,51.30
2023-03-07T01:12:07.404Z,62.40
2023-03-07T01:15:10.019Z,79.53
2023-03-07T01:18:13.343Z,83.22
2023-03-07T01:21:21.794Z,84.57
2023-03-07T01:24:24.544Z,88.13
2023-03-07T01:27:27.306Z,104.80
2023-03-07T01:30:29.346Z,103.72
2023-03-07T01:33:31.601Z,117.95
2023-03-07T01:36:35.027Z,94.45
2023-03-07T01:39:40.617Z,116.05
2023-03-07T01:42:45.279Z,97.50
2023-03-07T01:45:56.353Z,112.70
2023-03-07T01:49:01.367Z,108.47
2023-03-07T01:52:25.579Z,102.20
2023-03-07T01:55:34.117Z,113.32
2023-03-07T01:58:46.957Z,115.65
2023-03-07T02:01:50.314Z,103.43
2023-03-07T02:05:13.794Z,107.45
2023-03-07T02:08:17.280Z,98.55
2023-03-07T02:11:21.376Z,99.50
2023-03-07T02:14:23.457Z,101.15
2023-03-07T02:17:28.041Z,102.80
2023-03-07T02:20:36.237Z,112.05
2023-03-07T02:23:46.956Z,89.53
2023-03-07T02:26:51.910Z,100.47
2023-03-07T02:29:56.427Z,87.72
2023-03-07T02:32:58.539Z,77.63
2023-03-07T02:36:08.882Z,80.15
2023-03-07T02:39:14.761Z,94.05
2023-03-07T02:42:40.627Z,83.18
2023-03-07T02:45:47.063Z,82.28
2023-03-07T02:48:49.424Z,88.15
2023-03-07T02:51:57.744Z,81.63
2023-03-07T02:55:00.129Z,82.10
2023-03-07T02:58:07.353Z,97.22
2023-03-07T03:01:10.624Z,94.25
2023-03-07T03:04:12.761Z,80.57
2023-03-07T03:07:16.010Z,90.95
2023-03-07T03:10:18.278Z,90.03
2023-03-07T03:13:20.675Z,74.80
2023-03-07T03:16:22.966Z,78.78
2023-03-07T03:19:25.148Z,87.63
2023-03-07T03:22:27.291Z,85.03
2023-03-07T03:25:29.923Z,84.55
2023-03-07T03:28:32.055Z,79.63
2023-03-07T03:31:35.217Z,60.97
2023-03-07T03:34:39.551Z,65.13
2023-03-07T03:37:42.035Z,62.97
2023-03-07T03:40:44.106Z,63.08
2023-03-07T03:43:46.983Z,53.58
2023-03-07T03:46:49.351Z,56.60
2023-03-07T03:49:53.698Z,68.22
2023-03-07T03:52:57.142Z,62.10
2023-03-07T03:56:14.608Z,64.22
2023-03-07T03:59:17.652Z,82.07
2023-03-07T04:02:20.031Z,90.63
2023-03-07T04:05:22.716Z,105.28
2023-03-07T04:08:24.838Z,90.88
2023-03-07T04:11:27.117Z,90.70
2023-03-07T04:14:29.202Z,89.65
2023-03-07T04:17:31.712Z,97.18
2023-03-07T04:20:35.017Z,105.43
2023-03-07T04:23:37.925Z,105.88
2023-03-07T04:26:40.176Z,111.43
2023-03-07T04:29:42.306Z,113.35
2023-03-07T04:32:56.433Z,113.60
2023-03-07T04:35:58.708Z,106.65
2023-03-07T04:39:00.811Z,105.72
2023-03-07T04:42:02.900Z,120.20
2023-03-07T04:45:11.897Z,107.95
2023-03-07T04:48:14.335Z,128.70
2023-03-07T04:51:17.377Z,110.35
2023-03-07T04:54:19.623Z,117.82
2023-03-07T04:57:23.756Z,126.47
2023-03-07T05:00:26.197Z,116.05
2023-03-07T05:03:28.846Z,126.13
2023-03-07T05:06:33.576Z,115.85
2023-03-07T05:09:35.981Z,104.20
2023-03-07T05:12:38.025Z,115.90
2023-03-07T05:15:41.294Z,124.53
2023-03-07T05:18:43.591Z,127.50
2023-03-07T05:21:47.730Z,119.10
2023-03-07T05:24:50.205Z,106.78
2023-03-07T05:27:52.295Z,113.63
2023-03-07T05:30:57.442Z,123.38
2023-03-07T05:34:03.035Z,125.90
2023-03-07T05:37:05.475Z,113.72
2023-03-07T05:40:11.105Z,84.40
2023-03-07T05:43:16.701Z,97.90
2023-03-07T05:46:20.820Z,93.95
2023-03-07T05:49:25.054Z,105.07
2023-03-07T05:52:28.365Z,86.90
2023-03-07T05:55:30.683Z,106.30
2023-03-07T05:58:33.767Z,110.82
2023-03-07T06:01:36.005Z,83.63
2023-03-07T06:04:38.122Z,75.22
2023-03-07T06:07:40.363Z,64.18
2023-03-07T06:10:43.278Z,70.05
2023-03-07T06:13:47.195Z,65.18
2023-03-07T06:16:49.298Z,76.72
2023-03-07T06:19:51.544Z,73.72
2023-03-07T06:22:54.377Z,67.72
2023-03-07T06:25:56.911Z,79.90
2023-03-07T06:28:59.805Z,91.40
2023-03-07T06:32:02.190Z,85.90
2023-03-07T06:35:04.476Z,70.82
2023-03-07T06:38:07.607Z,69.18
2023-03-07T06:41:10.111Z,60.88
2023-03-07T06:44:12.474Z,55.72
2023-03-07T06:47:14.512Z,41.13
2023-03-07T06:50:23.756Z,38.63
2023-03-07T06:53:32.374Z,30.83
2023-03-07T06:56:35.964Z,36.63
2023-03-07T06:59:38.400Z,33.33
2023-03-07T07:02:40.732Z,29.92
2023-03-07T07:05:42.941Z,33.17
2023-03-07T07:08:45.176Z,33.67
2023-03-07T07:11:47.872Z,34.33
2023-03-07T07:14:50.167Z,32.33
2023-03-07T07:17:53.210Z,29.15
2023-03-07T07:20:57.532Z,32.30
2023-03-07T07:24:01.337Z,25.65
2023-03-07T07:27:03.917Z,29.70
2023-03-07T07:30:07.833Z,24.10
2023-03-07T07:33:11.325Z,52.95
2023-03-07T07:36:13.634Z,31.33
2023-03-07T07:39:17.409Z,28.05
2023-03-07T07:42:20.801Z,29.67
2023-03-07T07:45:38.048Z,28.10
2023-03-07T07:48:42.569Z,24.63
2023-03-07T07:51:45.787Z,25.92
2023-03-07T07:54:47.930Z,27.88
2023-03-07T07:57:51.293Z,25.67
2023-03-07T08:00:54.142Z,51.15
2023-03-07T08:03:56.331Z,21.83
2023-03-07T08:06:58.499Z,28.58
2023-03-07T08:10:00.593Z,24.52
2023-03-07T08:13:03.279Z,25.77
2023-03-07T08:16:22.710Z,12.82
2023-03-07T08:19:24.814Z,28.48
2023-03-07T08:22:27.345Z,24.60
2023-03-07T08:25:30.779Z,22.33
2023-03-07T08:28:33.363Z,21.15
2023-03-07T08:31:35.487Z,24.77
2023-03-07T08:34:37.614Z,27.63
2023-03-07T08:37:40.685Z,26.52
2023-03-07T08:40:42.692Z,14.75
2023-03-07T08:43:44.843Z,29.13
2023-03-07T08:46:46.762Z,24.88
2023-03-07T08:49:48.667Z,22.52
2023-03-07T08:52:51.350Z,25.83
2023-03-07T08:55:53.399Z,23.20
2023-03-07T08:58:55.410Z,19.33
2023-03-07T09:01:57.907Z,19.50
2023-03-07T09:05:00.084Z,19.10
2023-03-07T09:08:02.312Z,18.90
2023-03-07T09:11:05.654Z,21.45
2023-03-07T09:14:07.785Z,17.52
2023-03-07T09:17:10.516Z,22.25
2023-03-07T09:20:14.292Z,11.82
2023-03-07T09:23:16.262Z,12.95
2023-03-07T09:26:18.671Z,12.43
2023-03-07T09:29:20.703Z,8.48
2023-03-07T09:32:22.782Z,13.38
2023-03-07T09:35:25.386Z,10.35
2023-03-07T09:38:27.374Z,14.38
2023-03-07T09:41:32.333Z,12.50
2023-03-07T09:44:51.503Z,16.45
2023-03-07T09:48:31.370Z,11.90
2023-03-07T09:51:40.219Z,21.52
2023-03-07T09:58:16.138Z,6.55
2023-03-07T10:01:23.198Z,10.73
2023-03-07T10:04:34.865Z,8.88
2023-03-07T10:07:37.189Z,8.73
2023-03-07T10:10:47.593Z,11.15
2023-03-07T10:14:24.925Z,5.78
2023-03-07T10:17:40.232Z,4.10
2023-03-07T10:20:42.736Z,9.00
2023-03-07T10:24:02.946Z,7.18
2023-03-07T10:27:10.453Z,3.45
2023-03-07T10:30:18.173Z,4.93
2023-03-07T10:33:21.728Z,6.13
2023-03-07T10:36:46.750Z,6.05
2023-03-07T10:39:54.346Z,8.00
2023-03-07T10:42:58.494Z,13.35
2023-03-07T10:46:24.692Z,18.92
2023-03-07T10:49:37.688Z,17.73
2023-03-07T10:53:01.387Z,15.18
2023-03-07T10:56:16.594Z,12.20
2023-03-07T10:59:25.432Z,10.43
2023-03-07T11:02:30.674Z,16.25
2023-03-07T11:05:36.224Z,16.92
2023-03-07T11:08:38.168Z,17.83
2023-03-07T11:11:40.364Z,13.45
2023-03-07T11:15:00.474Z,12.75
2023-03-07T11:18:02.800Z,17.65
2023-03-07T11:21:05.342Z,19.65
2023-03-07T11:24:30.810Z,10.55
2023-03-07T11:27:38.986Z,14.85
2023-03-07T11:30:52.227Z,18.23
2023-03-07T11:34:17.228Z,17.45
2023-03-07T11:37:52.068Z,18.02
2023-03-07T11:40:56.821Z,19.08
2023-03-07T11:44:36.181Z,17.25
2023-03-07T11:47:45.855Z,16.47
2023-03-07T11:50:54.257Z,14.32
2023-03-07T11:54:07.841Z,15.80
2023-03-07T11:57:18.729Z,16.05
2023-03-07T12:00:26.554Z,15.68
2023-03-07T12:03:54.075Z,15.77
2023-03-07T12:07:20.557Z,17.00
2023-03-07T12:10:31.380Z,16.70
2023-03-07T12:13:45.420Z,14.48
2023-03-07T12:17:19.282Z,20.70
2023-03-07T12:20:31.997Z,11.77
2023-03-07T12:23:41.968Z,16.30
2023-03-07T12:26:56.430Z,19.60
2023-03-07T12:30:05.354Z,16.20
2023-03-07T12:33:21.673Z,18.45
2023-03-07T12:36:32.060Z,12.60
2023-03-07T12:39:42.738Z,11.13
2023-03-07T12:43:09.710Z,10.50
2023-03-07T12:46:31.497Z,13.10
2023-03-07T12:49:49.663Z,12.23
2023-03-07T12:52:57.328Z,15.98
2023-03-07T12:56:18.501Z,10.10
2023-03-07T12:59:21.948Z,12.18
2023-03-07T13:02:30.285Z,11.48
2023-03-07T13:05:37.901Z,10.68
2023-03-07T13:08:40.814Z,10.68
2023-03-07T13:12:20.093Z,12.15
2023-03-07T13:15:26.037Z,9.87
2023-03-07T13:18:31.789Z,16.45
2023-03-07T13:21:34.070Z,12.60
2023-03-07T13:24:39.985Z,16.48
2023-03-07T13:27:41.964Z,10.52
2023-03-07T13:31:16.148Z,11.02
2023-03-07T13:34:48.151Z,15.77
2023-03-07T13:38:00.347Z,10.38
2023-03-07T13:41:05.928Z,12.40
2023-03-07T13:44:30.693Z,15.68
2023-03-07T13:47:43.228Z,10.30
2023-03-07T13:50:45.244Z,13.43
2023-03-07T13:53:51.053Z,10.82
2023-03-07T13:56:55.451Z,10.02
2023-03-07T13:59:57.586Z,16.27
2023-03-07T14:02:59.848Z,10.38
2023-03-07T14:06:09.901Z,13.48
2023-03-07T14:09:18.418Z,13.82
2023-03-07T14:12:44.341Z,11.57
2023-03-07T14:16:15.878Z,11.80
2023-03-07T14:19:38.983Z,11.30
2023-03-07T14:23:02.718Z,11.13
2023-03-07T14:26:35.074Z,10.98
2023-03-07T14:29:37.263Z,15.15
2023-03-07T14:32:41.044Z,11.88
2023-03-07T14:35:44.732Z,12.02
2023-03-07T14:38:48.787Z,9.93
2023-03-07T14:42:18.216Z,8.02
2023-03-07T14:49:12.806Z,11.85
2023-03-07T14:52:29.899Z,20.90
2023-03-07T14:55:54.022Z,12.73
2023-03-07T14:59:00.275Z,17.00
2023-03-07T15:02:02.270Z,14.75
2023-03-07T15:05:04.801Z,14.52
2023-03-07T15:08:22.368Z,17.42
2023-03-07T15:11:51.974Z,15.40
2023-03-07T15:15:02.607Z,17.65
2023-03-07T15:18:14.227Z,10.30
2023-03-07T15:21:20.644Z,17.30
2023-03-07T15:24:33.806Z,21.75
2023-03-07T15:27:35.894Z,16.67
2023-03-07T15:31:25.491Z,16.70
2023-03-07T15:34:30.684Z,19.15
2023-03-07T15:37:33.489Z,17.27
2023-03-07T15:40:40.089Z,21.05
2023-03-07T15:43:42.415Z,17.48
2023-03-07T15:47:14.629Z,17.92
2023-03-07T15:50:24.071Z,33.17
2023-03-07T15:53:36.997Z,20.73
2023-03-07T15:56:41.203Z,26.80
2023-03-07T15:59:58.472Z,22.00
2023-03-07T16:03:29.396Z,26.38
2023-03-07T16:06:44.643Z,19.95
2023-03-07T16:09:46.646Z,25.67
2023-03-07T16:12:49.658Z,35.35
2023-03-07T16:16:12.559Z,25.02
2023-03-07T16:19:14.695Z,27.98
2023-03-07T16:22:19.092Z,28.48
2023-03-07T16:25:24.302Z,18.88
2023-03-07T16:28:28.322Z,31.02
2023-03-07T16:31:30.361Z,53.97
2023-03-07T16:34:33.814Z,54.35
2023-03-07T16:37:38.862Z,66.03
2023-03-07T16:40:48.470Z,59.65
2023-03-07T16:43:55.016Z,48.90
2023-03-07T16:47:13.978Z,51.17
2023-03-07T16:50:18.668Z,45.60
2023-03-07T16:53:20.716Z,30.85
2023-03-07T16:56:28.744Z,29.30
2023-03-07T16:59:39.951Z,32.33
2023-03-07T17:02:42.074Z,42.78
2023-03-07T17:05:45.106Z,35.70
2023-03-07T17:08:47.177Z,52.92
2023-03-07T17:11:51.717Z,42.78
2023-03-07T17:14:57.506Z,47.85
2023-03-07T17:18:01.285Z,44.45
2023-03-07T17:21:03.784Z,34.80
2023-03-07T17:24:06.182Z,36.20
2023-03-07T17:27:08.971Z,48.40
2023-03-07T17:30:17.881Z,43.47
2023-03-07T17:33:19.826Z,42.20
2023-03-07T17:36:22.670Z,43.20
2023-03-07T17:39:25.131Z,52.40
2023-03-07T17:42:29.527Z,59.17
2023-03-07T17:45:31.605Z,66.43
2023-03-07T17:48:35.756Z,59.05
2023-03-07T17:51:38.064Z,56.97
2023-03-07T17:54:41.203Z,54.53
2023-03-07T17:57:48.467Z,49.47
2023-03-07T18:00:50.493Z,47.05
2023-03-07T18:03:52.509Z,50.03
2023-03-07T18:06:54.536Z,46.78
2023-03-07T18:10:07.449Z,51.65
2023-03-07T18:13:15.013Z,57.90
2023-03-07T18:16:19.571Z,69.75
2023-03-07T18:19:27.466Z,54.35
2023-03-07T18:22:29.618Z,63.67
2023-03-07T18:25:32.590Z,72.28
2023-03-07T18:28:36.599Z,57.60
2023-03-07T18:31:41.908Z,79.93
2023-03-07T18:34:44.981Z,82.28
2023-03-07T18:37:47.573Z,85.68
2023-03-07T18:40:51.801Z,89.10
2023-03-07T18:44:05.685Z,100.28
2023-03-07T18:47:08.634Z,101.88
2023-03-07T18:50:12.509Z,88.05
2023-03-07T18:53:17.209Z,92.75
2023-03-07T18:56:19.568Z,105.07
2023-03-07T18:59:21.704Z,106.28
2023-03-07T19:02:23.776Z,95.93
2023-03-07T19:05:25.878Z,104.90
2023-03-07T19:08:28.564Z,107.00
2023-03-07T19:11:31.240Z,126.47
2023-03-07T19:14:33.712Z,102.80
2023-03-07T19:17:39.988Z,109.97
2023-03-07T19:20:42.254Z,108.43
2023-03-07T19:23:44.432Z,98.10
2023-03-07T19:26:46.530Z,109.43
2023-03-07T19:29:48.590Z,110.32
2023-03-07T19:32:50.674Z,115.28
2023-03-07T19:36:09.471Z,112.88
2023-03-07T19:39:20.754Z,105.90
2023-03-07T19:42:23.738Z,110.47
2023-03-07T19:45:27.118Z,107.95
2023-03-07T19:48:29.619Z,111.60
2023-03-07T19:51:31.608Z,107.53
2023-03-07T19:54:33.658Z,108.97
2023-03-07T19:57:36.534Z,100.97
2023-03-07T20:00:43.496Z,94.85
2023-03-07T20:03:46.090Z,92.28
2023-03-07T20:06:48.218Z,105.03
2023-03-07T20:09:53.181Z,89.55
2023-03-07T20:12:55.266Z,91.80
2023-03-07T20:15:57.380Z,102.20
2023-03-07T20:19:01.981Z,85.03
2023-03-07T20:22:05.079Z,93.45
2023-03-07T20:25:07.536Z,81.28
2023-03-07T20:28:09.890Z,94.40
2023-03-07T20:31:13.029Z,87.85
2023-03-07T20:34:15.108Z,92.78
2023-03-07T20:37:17.166Z,83.65
2023-03-07T20:40:19.292Z,82.40
2023-03-07T20:43:21.291Z,92.88
2023-03-07T20:46:23.742Z,89.18
2023-03-07T20:49:26.027Z,95.18
2023-03-07T20:52:28.347Z,87.63
2023-03-07T20:55:31.100Z,94.53
2023-03-07T20:58:33.697Z,88.88
2023-03-07T21:01:36.342Z,89.55
2023-03-07T21:04:38.343Z,89.95
2023-03-07T21:07:40.343Z,77.45
2023-03-07T21:10:42.447Z,79.45
2023-03-07T21:13:46.622Z,85.85
2023-03-07T21:16:49.527Z,81.57
2023-03-07T21:19:51.507Z,81.95
2023-03-07T21:22:57.591Z,76.40
2023-03-07T21:26:12.337Z,75.18
2023-03-07T21:29:14.650Z,70.82
2023-03-07T21:32:17.059Z,60.67
2023-03-07T21:35:19.317Z,62.00
2023-03-07T21:38:23.333Z,55.38
2023-03-07T21:41:25.432Z,61.08
2023-03-07T21:44:27.429Z,63.53
2023-03-07T21:47:29.583Z,73.60
2023-03-07T21:50:32.492Z,56.00
2023-03-07T21:53:35.697Z,54.30
2023-03-07T21:56:37.801Z,52.67
2023-03-07T21:59:40.447Z,57.38
2023-03-07T22:02:43.021Z,57.03
2023-03-07T22:05:45.292Z,55.08
2023-03-07T22:08:48.691Z,52.63
2023-03-07T22:11:50.713Z,56.47
2023-03-07T22:14:52.904Z,51.83
2023-03-07T22:17:55.889Z,48.88
2023-03-07T22:20:57.953Z,43.22
2023-03-07T22:24:01.294Z,45.75
2023-03-07T22:27:03.521Z,31.88
2023-03-07T22:30:07.466Z,44.58
2023-03-07T22:33:09.483Z,35.47
2023-03-07T22:36:13.760Z,34.53
2023-03-07T22:39:15.684Z,30.35
2023-03-07T22:42:17.879Z,27.27
2023-03-07T22:45:19.893Z,24.88
2023-03-07T22:48:22.225Z,24.90
2023-03-07T22:51:25.559Z,24.08
2023-03-07T22:54:28.051Z,24.50
2023-03-07T22:57:31.311Z,28.80
2023-03-07T23:00:33.230Z,23.55
2023-03-07T23:03:35.317Z,26.20
2023-03-07T23:06:38.577Z,59.92
2023-03-07T23:09:40.735Z,49.63
2023-03-07T23:12:43.104Z,44.42
2023-03-07T23:15:45.296Z,51.00
2023-03-07T23:18:51.800Z,46.85
2023-03-07T23:21:53.822Z,54.78
2023-03-07T23:24:55.911Z,53.47
2023-03-07T23:27:57.973Z,52.35
2023-03-07T23:31:00.323Z,61.90
2023-03-07T23:34:05.602Z,62.63
2023-03-07T23:37:07.559Z,57.70
2023-03-07T23:40:12.231Z,51.03
2023-03-07T23:43:14.772Z,53.08
2023-03-07T23:46:16.893Z,51.40
2023-03-07T23:49:18.953Z,60.47
2023-03-07T23:52:21.178Z,64.68
2023-03-07T23:55:23.282Z,60.58
2023-03-07T23:58:25.374Z,56.22
